createdAt,value
2018-09-20T00:00:35.206Z,4.90
2018-09-20T00:03:03.430Z,5.20
2018-09-20T00:05:31.669Z,5.10
2018-09-20T00:07:59.937Z,4.83
2018-09-20T00:10:28.199Z,4.27
2018-09-20T00:12:56.520Z,4.60
2018-09-20T00:15:24.753Z,4.40
2018-09-20T00:17:52.994Z,5.10
2018-09-20T00:20:21.262Z,4.60
2018-09-20T00:22:49.483Z,4.80
2018-09-20T00:25:17.731Z,4.30
2018-09-20T00:27:45.976Z,4.80
2018-09-20T00:30:14.251Z,4.87
2018-09-20T00:32:42.483Z,4.97
2018-09-20T00:35:10.744Z,4.60
2018-09-20T00:37:39.009Z,4.47
2018-09-20T00:40:07.257Z,4.30
2018-09-20T00:42:35.547Z,4.37
2018-09-20T00:45:03.785Z,4.40
2018-09-20T00:47:32.055Z,4.53
2018-09-20T00:50:00.309Z,4.10
2018-09-20T00:52:28.518Z,4.07
2018-09-20T00:54:56.769Z,4.43
2018-09-20T00:57:25.011Z,3.70
2018-09-20T00:59:53.254Z,4.17
2018-09-20T01:02:21.490Z,3.90
2018-09-20T01:04:49.701Z,4.00
2018-09-20T01:07:17.951Z,4.53
2018-09-20T01:09:46.223Z,4.27
2018-09-20T01:12:14.455Z,4.00
2018-09-20T01:14:42.702Z,3.90
2018-09-20T01:17:10.981Z,4.10
2018-09-20T01:19:39.264Z,4.40
2018-09-20T01:22:07.512Z,4.43
2018-09-20T01:24:35.785Z,4.27
2018-09-20T01:27:04.025Z,4.40
2018-09-20T01:29:32.255Z,3.73
2018-09-20T01:32:00.494Z,3.90
2018-09-20T01:34:28.724Z,4.37
2018-09-20T01:36:57.015Z,3.97
2018-09-20T01:39:25.275Z,4.43
2018-09-20T01:41:53.240Z,4.37
2018-09-20T01:44:21.547Z,4.23
2018-09-20T01:46:49.777Z,4.27
2018-09-20T01:49:18.072Z,4.70
2018-09-20T01:51:46.299Z,4.30
2018-09-20T01:54:14.523Z,3.97
2018-09-20T01:56:42.768Z,4.00
2018-09-20T01:59:11.012Z,4.20
2018-09-20T02:01:39.249Z,4.20
2018-09-20T02:04:07.652Z,3.77
2018-09-20T02:06:35.886Z,3.93
2018-09-20T02:09:06.061Z,4.00
2018-09-20T02:11:34.317Z,4.37
2018-09-20T02:14:02.743Z,4.03
2018-09-20T02:16:30.976Z,3.70
2018-09-20T02:18:59.179Z,4.20
2018-09-20T02:21:27.420Z,4.03
2018-09-20T02:23:55.796Z,4.13
2018-09-20T02:26:24.946Z,4.40
2018-09-20T02:28:53.181Z,4.13
2018-09-20T02:31:22.013Z,4.23
2018-09-20T02:33:50.292Z,4.47
2018-09-20T02:36:18.529Z,4.60
2018-09-20T02:38:46.941Z,4.50
2018-09-20T02:41:15.193Z,4.00
2018-09-20T02:43:43.418Z,4.10
2018-09-20T02:46:11.709Z,4.30
2018-09-20T02:48:39.954Z,4.37
2018-09-20T02:51:08.182Z,4.30
2018-09-20T02:53:36.415Z,4.60
2018-09-20T02:56:04.697Z,4.07
2018-09-20T02:58:32.953Z,4.00
2018-09-20T03:01:02.169Z,4.63
2018-09-20T03:03:30.389Z,5.20
2018-09-20T03:05:58.608Z,4.80
2018-09-20T03:08:26.839Z,5.07
2018-09-20T03:10:55.074Z,4.67
2018-09-20T03:13:23.354Z,4.50
2018-09-20T03:15:51.554Z,4.40
2018-09-20T03:18:19.798Z,4.90
2018-09-20T03:20:47.985Z,4.90
2018-09-20T03:23:16.205Z,4.60
2018-09-20T03:25:44.398Z,4.97
2018-09-20T03:28:12.581Z,4.47
2018-09-20T03:30:40.847Z,4.60
2018-09-20T03:33:08.978Z,5.00
2018-09-20T03:35:37.184Z,4.70
2018-09-20T03:38:05.373Z,4.67
2018-09-20T03:40:33.568Z,5.40
2018-09-20T03:43:01.773Z,5.27
2018-09-20T03:45:29.998Z,5.30
2018-09-20T03:48:04.906Z,4.80
2018-09-20T03:50:33.134Z,5.13
2018-09-20T03:53:01.360Z,4.60
2018-09-20T03:55:29.636Z,5.00
2018-09-20T03:57:57.861Z,5.13
2018-09-20T04:00:26.045Z,5.20
2018-09-20T04:02:54.257Z,5.17
2018-09-20T04:05:22.466Z,5.03
2018-09-20T04:07:50.657Z,4.87
2018-09-20T04:10:18.867Z,5.30
2018-09-20T04:12:47.074Z,5.03
2018-09-20T04:15:15.260Z,5.00
2018-09-20T04:17:43.536Z,4.70
2018-09-20T04:20:11.797Z,5.13
2018-09-20T04:22:40.033Z,4.90
2018-09-20T04:25:08.269Z,5.20
2018-09-20T04:27:36.526Z,5.17
2018-09-20T04:30:05.070Z,5.20
2018-09-20T04:32:33.305Z,5.50
2018-09-20T04:35:01.568Z,4.73
2018-09-20T04:37:29.817Z,5.13
2018-09-20T04:39:58.119Z,5.03
2018-09-20T04:42:26.343Z,5.07
2018-09-20T04:44:54.573Z,5.57
2018-09-20T04:47:22.842Z,5.23
2018-09-20T04:49:51.376Z,4.70
2018-09-20T04:52:19.578Z,5.00
2018-09-20T04:54:47.800Z,5.00
2018-09-20T04:57:16.003Z,5.03
2018-09-20T04:59:44.248Z,4.80
2018-09-20T05:02:12.822Z,5.00
2018-09-20T05:04:41.012Z,5.23
2018-09-20T05:07:09.209Z,5.10
2018-09-20T05:09:37.620Z,5.27
2018-09-20T05:12:05.706Z,5.10
2018-09-20T05:14:33.960Z,4.77
2018-09-20T05:17:02.166Z,4.30
2018-09-20T05:19:30.392Z,5.00
2018-09-20T05:21:58.612Z,4.93
2018-09-20T05:24:26.893Z,5.60
2018-09-20T05:26:55.125Z,4.70
2018-09-20T05:29:23.374Z,5.03
2018-09-20T05:31:51.596Z,5.17
2018-09-20T05:34:19.801Z,5.83
2018-09-20T05:36:48.014Z,5.27
2018-09-20T05:39:16.372Z,5.27
2018-09-20T05:41:44.578Z,5.30
2018-09-20T05:44:12.801Z,5.17
2018-09-20T05:46:41.769Z,5.00
2018-09-20T05:49:10.177Z,5.70
2018-09-20T05:51:38.440Z,4.93
2018-09-20T05:54:07.075Z,4.80
2018-09-20T05:56:35.733Z,4.97
2018-09-20T05:59:04.093Z,5.20
2018-09-20T06:01:32.396Z,5.10
2018-09-20T06:04:00.613Z,5.17
2018-09-20T06:06:28.844Z,5.57
2018-09-20T06:08:57.150Z,5.37
2018-09-20T06:11:25.362Z,5.10
2018-09-20T06:13:53.601Z,5.30
2018-09-20T06:16:21.854Z,5.50
2018-09-20T06:18:50.135Z,5.03
2018-09-20T06:21:18.425Z,5.50
2018-09-20T06:23:47.103Z,5.00
2018-09-20T06:26:15.510Z,5.40
2018-09-20T06:28:44.029Z,5.50
2018-09-20T06:31:12.313Z,5.50
2018-09-20T06:33:40.534Z,5.17
2018-09-20T06:36:08.852Z,5.27
2018-09-20T06:38:37.174Z,5.33
2018-09-20T06:41:05.480Z,5.37
2018-09-20T06:43:33.694Z,5.00
2018-09-20T06:46:01.914Z,5.50
2018-09-20T06:48:30.121Z,5.30
2018-09-20T06:50:58.425Z,4.93
2018-09-20T06:53:26.808Z,4.93
2018-09-20T06:55:55.140Z,5.07
2018-09-20T06:58:23.796Z,4.90
2018-09-20T07:00:52.040Z,4.90
2018-09-20T07:03:20.276Z,4.60
2018-09-20T07:05:48.494Z,4.47
2018-09-20T07:08:16.736Z,4.63
2018-09-20T07:10:45.015Z,4.83
2018-09-20T07:13:13.224Z,4.90
2018-09-20T07:15:41.477Z,4.47
2018-09-20T07:18:09.702Z,4.30
2018-09-20T07:20:37.955Z,4.27
2018-09-20T07:23:06.211Z,4.63
2018-09-20T07:25:34.224Z,4.70
2018-09-20T07:28:02.389Z,4.23
2018-09-20T07:30:30.583Z,4.27
2018-09-20T07:32:58.812Z,4.60
2018-09-20T07:35:27.041Z,5.07
2018-09-20T07:37:55.256Z,4.07
2018-09-20T07:40:23.500Z,4.20
2018-09-20T07:42:51.709Z,4.03
2018-09-20T07:45:19.901Z,4.17
2018-09-20T07:47:48.095Z,4.33
2018-09-20T07:50:16.304Z,4.13
2018-09-20T07:52:44.478Z,4.70
2018-09-20T07:55:12.689Z,4.43
2018-09-20T07:57:40.913Z,4.40
2018-09-20T08:00:09.177Z,3.87
2018-09-20T08:02:37.385Z,4.27
2018-09-20T08:05:05.606Z,4.00
2018-09-20T08:07:33.798Z,3.90
2018-09-20T08:10:02.379Z,3.80
2018-09-20T08:12:30.838Z,3.83
2018-09-20T08:14:59.017Z,3.70
2018-09-20T08:17:27.802Z,3.27
2018-09-20T08:19:56.027Z,3.52
2018-09-20T08:22:24.253Z,3.90
2018-09-20T08:24:52.457Z,3.98
2018-09-20T08:27:20.660Z,3.62
2018-09-20T08:29:48.882Z,4.25
2018-09-20T08:32:17.107Z,4.22
2018-09-20T08:34:45.320Z,3.83
2018-09-20T08:37:13.579Z,3.80
2018-09-20T08:39:41.748Z,3.98
2018-09-20T08:42:10.021Z,4.00
2018-09-20T08:44:38.215Z,3.75
2018-09-20T08:47:06.442Z,3.55
2018-09-20T08:49:34.813Z,3.80
2018-09-20T08:52:03.058Z,4.28
2018-09-20T08:54:31.872Z,3.65
2018-09-20T08:57:00.173Z,4.10
2018-09-20T08:59:28.406Z,4.15
2018-09-20T09:01:56.605Z,3.97
2018-09-20T09:04:24.895Z,3.62
2018-09-20T09:06:53.065Z,3.50
2018-09-20T09:09:21.268Z,3.43
2018-09-20T09:11:49.583Z,3.83
2018-09-20T09:14:17.906Z,4.00
2018-09-20T09:16:46.192Z,3.80
2018-09-20T09:19:14.399Z,3.47
2018-09-20T09:21:42.602Z,3.70
2018-09-20T09:24:10.833Z,3.60
2018-09-20T09:26:39.113Z,3.83
2018-09-20T09:29:07.323Z,3.55
2018-09-20T09:31:36.318Z,3.47
2018-09-20T09:34:04.606Z,3.33
2018-09-20T09:36:32.803Z,3.60
2018-09-20T09:39:01.013Z,3.17
2018-09-20T09:41:29.261Z,2.83
2018-09-20T09:43:57.472Z,3.33
2018-09-20T09:46:25.705Z,3.40
2018-09-20T09:48:53.905Z,3.22
2018-09-20T09:51:22.106Z,3.10
2018-09-20T09:53:50.374Z,3.00
2018-09-20T09:56:18.594Z,3.42
2018-09-20T09:58:46.834Z,3.20
2018-09-20T10:01:15.137Z,3.72
2018-09-20T10:03:43.359Z,3.02
2018-09-20T10:06:11.660Z,3.20
2018-09-20T10:08:39.937Z,3.50
2018-09-20T10:11:08.156Z,3.33
2018-09-20T10:13:37.195Z,2.98
2018-09-20T10:16:05.389Z,4.62
2018-09-20T10:18:33.585Z,2.87
2018-09-20T10:21:01.782Z,2.65
2018-09-20T10:23:30.012Z,3.20
2018-09-20T10:25:58.233Z,2.95
2018-09-20T10:28:26.408Z,2.70
2018-09-20T10:30:54.615Z,3.10
2018-09-20T10:33:22.786Z,2.77
2018-09-20T10:35:50.994Z,3.05
2018-09-20T10:38:19.196Z,2.45
2018-09-20T10:40:47.379Z,2.80
2018-09-20T10:43:15.625Z,2.80
2018-09-20T10:45:43.858Z,3.00
2018-09-20T10:48:12.080Z,3.17
2018-09-20T10:50:40.403Z,3.02
2018-09-20T10:53:09.189Z,2.80
2018-09-20T10:55:37.433Z,3.30
2018-09-20T10:58:05.701Z,2.80
2018-09-20T11:00:33.913Z,2.90
2018-09-20T11:03:02.177Z,3.00
2018-09-20T11:05:30.333Z,3.12
2018-09-20T11:07:58.590Z,2.70
2018-09-20T11:10:26.884Z,3.20
2018-09-20T11:12:55.069Z,3.17
2018-09-20T11:15:23.324Z,3.37
2018-09-20T11:17:51.706Z,3.62
2018-09-20T11:20:20.931Z,3.25
2018-09-20T11:22:49.194Z,3.70
2018-09-20T11:25:17.465Z,3.08
2018-09-20T11:27:45.682Z,3.10
2018-09-20T11:30:13.927Z,3.35
2018-09-20T11:32:42.784Z,3.20
2018-09-20T11:35:11.017Z,3.15
2018-09-20T11:37:39.571Z,3.30
2018-09-20T11:40:07.853Z,3.10
2018-09-20T11:42:36.095Z,2.50
2018-09-20T11:45:04.427Z,3.25
2018-09-20T11:47:32.668Z,2.98
2018-09-20T11:50:01.496Z,3.00
2018-09-20T11:52:29.750Z,2.77
2018-09-20T11:54:57.963Z,3.00
2018-09-20T11:57:26.189Z,3.12
2018-09-20T11:59:54.409Z,2.70
2018-09-20T12:02:22.656Z,2.58
2018-09-20T12:04:50.857Z,3.00
2018-09-20T12:07:19.083Z,2.75
2018-09-20T12:09:48.459Z,3.02
2018-09-20T12:12:16.673Z,2.98
2018-09-20T12:14:45.179Z,2.77
2018-09-20T12:17:13.378Z,2.35
2018-09-20T12:19:41.636Z,3.20
2018-09-20T12:22:10.053Z,2.55
2018-09-20T12:24:38.305Z,3.00
2018-09-20T12:27:07.133Z,2.30
2018-09-20T12:29:35.429Z,2.65
2018-09-20T12:32:03.695Z,2.45
2018-09-20T12:34:31.956Z,3.30
2018-09-20T12:37:00.197Z,2.90
2018-09-20T12:39:28.479Z,3.00
2018-09-20T12:41:56.786Z,2.95
2018-09-20T12:44:25.017Z,3.00
2018-09-20T12:46:53.265Z,2.85
2018-09-20T12:49:21.700Z,2.72
2018-09-20T12:51:50.416Z,3.00
2018-09-20T12:54:18.709Z,2.80
2018-09-20T12:56:46.941Z,2.80
2018-09-20T12:59:15.227Z,2.80
2018-09-20T13:01:43.463Z,3.15
2018-09-20T13:04:11.994Z,2.65
2018-09-20T13:06:40.227Z,2.95
2018-09-20T13:09:09.551Z,2.52
2018-09-20T13:11:37.791Z,2.62
2018-09-20T13:14:06.027Z,2.92
2018-09-20T13:16:34.278Z,2.58
2018-09-20T13:19:02.533Z,3.25
2018-09-20T13:21:30.785Z,2.52
2018-09-20T13:23:59.027Z,3.02
2018-09-20T13:26:27.359Z,3.08
2018-09-20T13:28:57.375Z,2.60
2018-09-20T13:31:25.608Z,2.75
2018-09-20T13:33:53.914Z,3.17
2018-09-20T13:36:22.167Z,2.72
2018-09-20T13:38:50.432Z,2.70
2018-09-20T13:41:18.682Z,2.60
2018-09-20T13:43:46.955Z,2.90
2018-09-20T13:46:15.518Z,2.80
2018-09-20T13:48:43.757Z,2.95
2018-09-20T13:51:12.046Z,3.05
2018-09-20T13:53:40.294Z,2.87
2018-09-20T13:56:08.602Z,2.87
2018-09-20T13:58:37.521Z,2.42
2018-09-20T14:01:05.805Z,2.60
2018-09-20T14:03:34.120Z,2.70
2018-09-20T14:06:02.359Z,2.75
2018-09-20T14:08:30.594Z,2.25
2018-09-20T14:10:58.779Z,2.30
2018-09-20T14:13:27.011Z,2.50
2018-09-20T14:15:55.742Z,2.17
2018-09-20T14:18:24.303Z,2.58
2018-09-20T14:20:52.919Z,2.40
2018-09-20T14:23:21.149Z,2.35
2018-09-20T14:25:49.386Z,2.25
2018-09-20T14:28:17.643Z,2.30
2018-09-20T14:30:45.900Z,2.67
2018-09-20T14:33:14.125Z,2.72
2018-09-20T14:35:42.388Z,2.77
2018-09-20T14:38:10.629Z,2.45
2018-09-20T14:40:38.898Z,2.35
2018-09-20T14:43:07.230Z,2.52
2018-09-20T14:45:35.465Z,2.62
2018-09-20T14:48:03.770Z,2.50
2018-09-20T14:50:32.011Z,2.55
2018-09-20T14:53:00.224Z,2.80
2018-09-20T14:55:28.500Z,2.72
2018-09-20T14:57:56.986Z,2.70
2018-09-20T15:00:25.689Z,2.60
2018-09-20T15:02:54.609Z,2.70
2018-09-20T15:05:22.886Z,2.35
2018-09-20T15:07:51.193Z,2.90
2018-09-20T15:10:19.515Z,2.67
2018-09-20T15:12:47.833Z,2.87
2018-09-20T15:15:16.195Z,2.60
2018-09-20T15:17:44.448Z,2.58
2018-09-20T15:20:12.661Z,2.47
2018-09-20T15:22:40.905Z,3.02
2018-09-20T15:25:09.377Z,3.50
2018-09-20T15:27:37.603Z,3.80
2018-09-20T15:30:06.328Z,2.95
2018-09-20T15:32:34.620Z,2.52
2018-09-20T15:35:02.886Z,2.33
2018-09-20T15:37:31.087Z,2.25
2018-09-20T15:39:59.426Z,2.75
2018-09-20T15:42:27.641Z,2.20
2018-09-20T15:44:55.998Z,2.40
2018-09-20T15:47:24.270Z,2.60
2018-09-20T15:49:52.509Z,2.37
2018-09-20T15:52:20.742Z,2.37
2018-09-20T15:54:48.959Z,2.50
2018-09-20T15:57:17.209Z,2.25
2018-09-20T15:59:45.442Z,2.50
2018-09-20T16:02:13.721Z,2.50
2018-09-20T16:04:42.095Z,2.73
2018-09-20T16:07:10.455Z,2.83
2018-09-20T16:09:38.700Z,2.40
2018-09-20T16:12:06.987Z,2.40
2018-09-20T16:14:35.266Z,2.83
2018-09-20T16:17:03.491Z,2.85
2018-09-20T16:19:31.704Z,2.25
2018-09-20T16:21:59.928Z,2.80
2018-09-20T16:24:28.161Z,2.93
2018-09-20T16:26:57.172Z,2.57
2018-09-20T16:29:39.181Z,2.20
2018-09-20T16:32:21.691Z,2.52
2018-09-20T16:35:11.947Z,2.40
2018-09-20T16:38:04.282Z,3.00
2018-09-20T16:40:35.355Z,2.60
2018-09-20T16:43:03.562Z,2.73
2018-09-20T16:45:32.208Z,2.97
2018-09-20T16:48:00.503Z,3.00
2018-09-20T16:50:28.781Z,2.90
2018-09-20T16:52:57.048Z,2.90
2018-09-20T16:55:25.290Z,2.90
2018-09-20T16:57:53.564Z,2.80
2018-09-20T17:00:21.861Z,3.00
2018-09-20T17:02:50.118Z,2.90
2018-09-20T17:05:18.425Z,2.70
2018-09-20T17:07:46.610Z,2.90
2018-09-20T17:10:14.840Z,2.60
2018-09-20T17:13:14.708Z,3.03
2018-09-20T17:15:42.907Z,3.10
2018-09-20T17:18:11.125Z,2.80
2018-09-20T17:20:39.461Z,2.83
2018-09-20T17:23:07.722Z,2.80
2018-09-20T17:25:36.127Z,2.77
2018-09-20T17:28:04.454Z,3.00
2018-09-20T17:30:32.763Z,2.67
2018-09-20T17:33:01.012Z,2.90
2018-09-20T17:35:29.699Z,3.30
2018-09-20T17:37:59.080Z,2.73
2018-09-20T17:40:28.533Z,3.03
2018-09-20T17:42:59.721Z,2.80
2018-09-20T17:45:28.209Z,2.90
2018-09-20T17:47:56.382Z,3.30
2018-09-20T17:50:24.699Z,2.97
2018-09-20T17:52:53.550Z,3.20
2018-09-20T17:55:22.291Z,3.10
2018-09-20T17:57:50.995Z,3.10
2018-09-20T18:00:21.731Z,3.50
2018-09-20T18:02:49.956Z,3.00
2018-09-20T18:05:18.550Z,3.50
2018-09-20T18:07:46.760Z,3.27
2018-09-20T18:10:15.011Z,3.47
2018-09-20T18:12:43.437Z,3.27
2018-09-20T18:15:11.722Z,3.43
2018-09-20T18:17:40.011Z,3.80
2018-09-20T18:20:08.242Z,3.03
2018-09-20T18:22:36.479Z,3.20
2018-09-20T18:25:04.729Z,3.53
2018-09-20T18:27:33.031Z,3.37
2018-09-20T18:30:01.424Z,3.20
2018-09-20T18:32:29.669Z,3.87
2018-09-20T18:34:57.934Z,3.67
2018-09-20T18:37:26.197Z,3.17
2018-09-20T18:39:54.438Z,3.00
2018-09-20T18:42:22.678Z,3.07
2018-09-20T18:44:50.929Z,3.10
2018-09-20T18:47:19.158Z,3.10
2018-09-20T18:49:47.404Z,3.10
2018-09-20T18:52:15.658Z,3.10
2018-09-20T18:54:43.867Z,3.10
2018-09-20T18:57:12.211Z,2.93
2018-09-20T18:59:40.492Z,2.93
2018-09-20T19:02:08.794Z,3.03
2018-09-20T19:04:37.050Z,2.70
2018-09-20T19:07:05.393Z,3.07
2018-09-20T19:09:33.728Z,2.90
2018-09-20T19:12:01.967Z,3.10
2018-09-20T19:14:30.219Z,3.13
2018-09-20T19:16:58.479Z,3.10
2018-09-20T19:19:26.751Z,2.90
2018-09-20T19:21:54.965Z,2.80
2018-09-20T19:24:23.196Z,2.67
2018-09-20T19:26:51.555Z,2.63
2018-09-20T19:29:19.775Z,2.53
2018-09-20T19:31:48.026Z,2.90
2018-09-20T19:34:16.303Z,2.63
2018-09-20T19:36:44.641Z,2.70
2018-09-20T19:39:13.096Z,3.00
2018-09-20T19:41:41.464Z,2.93
2018-09-20T19:44:09.776Z,2.70
2018-09-20T19:46:38.053Z,2.80
2018-09-20T19:49:06.325Z,3.00
2018-09-20T19:51:34.533Z,3.00
2018-09-20T19:54:02.767Z,2.60
2018-09-20T19:56:31.034Z,2.77
2018-09-20T19:58:59.258Z,2.93
2018-09-20T20:01:27.468Z,3.20
2018-09-20T22:02:58.764Z,2.67
2018-09-20T22:05:27.013Z,2.80
2018-09-20T22:07:55.217Z,2.67
2018-09-20T22:10:23.420Z,2.77
2018-09-20T22:12:51.681Z,2.77
2018-09-20T22:15:24.114Z,2.80
2018-09-20T22:17:52.477Z,2.60
2018-09-20T22:20:21.150Z,3.10
2018-09-20T22:22:49.415Z,2.90
2018-09-20T22:25:17.635Z,3.03
2018-09-20T22:27:45.862Z,3.00
2018-09-20T22:30:14.419Z,2.80
2018-09-20T22:32:42.649Z,3.13
2018-09-20T22:35:10.900Z,2.90
2018-09-20T22:37:39.177Z,3.10
2018-09-20T22:40:07.411Z,2.87
2018-09-20T22:42:35.624Z,2.93
2018-09-20T22:45:04.601Z,2.87
2018-09-20T22:47:33.802Z,2.93
2018-09-20T22:50:02.080Z,3.10
2018-09-20T22:52:30.282Z,3.07
2018-09-20T22:54:58.533Z,3.00
2018-09-20T22:57:26.769Z,3.00
2018-09-20T22:59:54.974Z,3.00
2018-09-20T23:02:23.265Z,3.13
2018-09-20T23:04:51.465Z,3.00
2018-09-20T23:07:19.690Z,3.07
2018-09-20T23:09:47.900Z,3.17
2018-09-20T23:12:16.121Z,3.10
2018-09-20T23:14:44.385Z,2.80
2018-09-20T23:17:12.604Z,2.83
2018-09-20T23:19:40.835Z,3.03
2018-09-20T23:22:09.041Z,2.80
2018-09-20T23:24:37.268Z,3.33
2018-09-20T23:27:05.485Z,3.10
2018-09-20T23:29:33.741Z,2.97
2018-09-20T23:32:01.966Z,3.30
2018-09-20T23:34:30.189Z,3.00
2018-09-20T23:36:58.425Z,3.13
2018-09-20T23:39:27.043Z,3.50
2018-09-20T23:41:55.293Z,3.57
2018-09-20T23:44:23.543Z,3.47
2018-09-20T23:46:51.773Z,3.10
2018-09-20T23:49:19.991Z,3.37
2018-09-20T23:51:48.213Z,3.60
2018-09-20T23:54:16.440Z,3.47
2018-09-20T23:56:44.741Z,3.43
2018-09-20T23:59:13.059Z,3.57
